sensor_id;sensor_type;location;lat;lon;timestamp;P1;durP1;ratioP1;P2;durP2;ratioP2
63714;SDS011;49858;48.956;9.076;2023-08-08T00:00:43;1.33;;;1.00;;
63714;SDS011;49858;48.956;9.076;2023-08-08T00:03:12;2.95;;;1.50;;
63714;SDS011;49858;48.956;9.076;2023-08-08T00:05:40;2.20;;;1.20;;
63714;SDS011;49858;48.956;9.076;2023-08-08T00:08:08;2.08;;;0.95;;
63714;SDS011;49858;48.956;9.076;2023-08-08T00:10:36;1.13;;;0.88;;
63714;SDS011;49858;48.956;9.076;2023-08-08T00:13:04;1.67;;;1.10;;
63714;SDS011;49858;48.956;9.076;2023-08-08T00:15:32;2.70;;;1.20;;
63714;SDS011;49858;48.956;9.076;2023-08-08T00:18:00;5.60;;;1.65;;
63714;SDS011;49858;48.956;9.076;2023-08-08T00:20:29;1.23;;;0.80;;
63714;SDS011;49858;48.956;9.076;2023-08-08T00:22:57;1.55;;;1.00;;
63714;SDS011;49858;48.956;9.076;2023-08-08T00:25:25;2.95;;;1.00;;
63714;SDS011;49858;48.956;9.076;2023-08-08T00:27:53;1.85;;;1.10;;
63714;SDS011;49858;48.956;9.076;2023-08-08T00:30:21;2.25;;;1.10;;
63714;SDS011;49858;48.956;9.076;2023-08-08T00:32:49;4.20;;;0.95;;
63714;SDS011;49858;48.956;9.076;2023-08-08T00:35:18;1.45;;;1.02;;
63714;SDS011;49858;48.956;9.076;2023-08-08T00:37:47;1.70;;;1.33;;
63714;SDS011;49858;48.956;9.076;2023-08-08T00:40:15;1.40;;;1.05;;
63714;SDS011;49858;48.956;9.076;2023-08-08T00:42:43;1.13;;;0.90;;
63714;SDS011;49858;48.956;9.076;2023-08-08T00:45:11;2.10;;;1.20;;
63714;SDS011;49858;48.956;9.076;2023-08-08T00:47:39;1.80;;;1.08;;
63714;SDS011;49858;48.956;9.076;2023-08-08T00:50:07;1.55;;;1.02;;
63714;SDS011;49858;48.956;9.076;2023-08-08T00:52:39;1.85;;;0.98;;
63714;SDS011;49858;48.956;9.076;2023-08-08T00:55:10;1.83;;;1.17;;
63714;SDS011;49858;48.956;9.076;2023-08-08T00:57:41;2.25;;;1.23;;
63714;SDS011;49858;48.956;9.076;2023-08-08T01:00:09;1.73;;;1.10;;
63714;SDS011;49858;48.956;9.076;2023-08-08T01:02:38;3.00;;;1.08;;
63714;SDS011;49858;48.956;9.076;2023-08-08T01:05:06;1.40;;;1.10;;
63714;SDS011;49858;48.956;9.076;2023-08-08T01:07:36;2.17;;;1.25;;
63714;SDS011;49858;48.956;9.076;2023-08-08T01:10:09;1.60;;;1.23;;
63714;SDS011;49858;48.956;9.076;2023-08-08T01:12:41;2.80;;;1.30;;
63714;SDS011;49858;48.956;9.076;2023-08-08T01:15:12;2.58;;;1.38;;
63714;SDS011;49858;48.956;9.076;2023-08-08T01:17:42;2.17;;;1.20;;
63714;SDS011;49858;48.956;9.076;2023-08-08T01:20:11;3.05;;;1.83;;
63714;SDS011;49858;48.956;9.076;2023-08-08T01:22:45;3.00;;;1.20;;
63714;SDS011;49858;48.956;9.076;2023-08-08T01:25:27;1.73;;;1.23;;
63714;SDS011;49858;48.956;9.076;2023-08-08T01:27:55;7.55;;;1.27;;
63714;SDS011;49858;48.956;9.076;2023-08-08T01:30:23;5.18;;;1.70;;
63714;SDS011;49858;48.956;9.076;2023-08-08T01:32:51;3.65;;;1.60;;
63714;SDS011;49858;48.956;9.076;2023-08-08T01:35:19;3.17;;;1.65;;
63714;SDS011;49858;48.956;9.076;2023-08-08T01:37:48;2.38;;;1.20;;
63714;SDS011;49858;48.956;9.076;2023-08-08T01:40:17;1.52;;;1.40;;
63714;SDS011;49858;48.956;9.076;2023-08-08T01:42:48;3.08;;;1.27;;
63714;SDS011;49858;48.956;9.076;2023-08-08T01:45:16;2.97;;;1.63;;
63714;SDS011;49858;48.956;9.076;2023-08-08T01:47:48;3.53;;;1.52;;
63714;SDS011;49858;48.956;9.076;2023-08-08T01:50:17;2.17;;;1.38;;
63714;SDS011;49858;48.956;9.076;2023-08-08T01:52:45;2.72;;;1.52;;
63714;SDS011;49858;48.956;9.076;2023-08-08T01:55:13;3.35;;;1.92;;
63714;SDS011;49858;48.956;9.076;2023-08-08T01:57:42;2.25;;;1.30;;
63714;SDS011;49858;48.956;9.076;2023-08-08T02:00:12;1.90;;;1.42;;
63714;SDS011;49858;48.956;9.076;2023-08-08T02:02:42;2.72;;;1.40;;
63714;SDS011;49858;48.956;9.076;2023-08-08T02:05:10;3.50;;;1.77;;
63714;SDS011;49858;48.956;9.076;2023-08-08T02:07:39;3.45;;;1.58;;
63714;SDS011;49858;48.956;9.076;2023-08-08T02:10:07;2.33;;;1.70;;
63714;SDS011;49858;48.956;9.076;2023-08-08T02:12:36;2.50;;;1.45;;
63714;SDS011;49858;48.956;9.076;2023-08-08T02:15:04;3.13;;;1.85;;
63714;SDS011;49858;48.956;9.076;2023-08-08T02:17:35;2.53;;;1.58;;
63714;SDS011;49858;48.956;9.076;2023-08-08T02:20:03;3.90;;;1.30;;
63714;SDS011;49858;48.956;9.076;2023-08-08T02:22:32;4.65;;;1.13;;
63714;SDS011;49858;48.956;9.076;2023-08-08T02:25:03;3.78;;;1.70;;
63714;SDS011;49858;48.956;9.076;2023-08-08T02:27:31;4.05;;;2.33;;
63714;SDS011;49858;48.956;9.076;2023-08-08T02:29:59;3.28;;;1.83;;
63714;SDS011;49858;48.956;9.076;2023-08-08T02:32:27;2.85;;;1.70;;
63714;SDS011;49858;48.956;9.076;2023-08-08T02:34:56;7.72;;;1.35;;
63714;SDS011;49858;48.956;9.076;2023-08-08T02:37:24;2.28;;;1.40;;
63714;SDS011;49858;48.956;9.076;2023-08-08T02:39:52;2.17;;;1.50;;
63714;SDS011;49858;48.956;9.076;2023-08-08T02:42:22;2.17;;;1.63;;
63714;SDS011;49858;48.956;9.076;2023-08-08T02:44:50;3.17;;;1.48;;
63714;SDS011;49858;48.956;9.076;2023-08-08T02:47:18;3.35;;;1.40;;
63714;SDS011;49858;48.956;9.076;2023-08-08T02:49:47;2.40;;;1.58;;
63714;SDS011;49858;48.956;9.076;2023-08-08T02:52:16;4.18;;;1.80;;
63714;SDS011;49858;48.956;9.076;2023-08-08T02:54:46;2.75;;;1.75;;
63714;SDS011;49858;48.956;9.076;2023-08-08T02:57:14;2.35;;;1.73;;
63714;SDS011;49858;48.956;9.076;2023-08-08T02:59:42;2.03;;;1.50;;
63714;SDS011;49858;48.956;9.076;2023-08-08T03:02:10;2.80;;;1.60;;
63714;SDS011;49858;48.956;9.076;2023-08-08T03:04:39;2.13;;;1.40;;
63714;SDS011;49858;48.956;9.076;2023-08-08T03:07:07;4.00;;;1.85;;
63714;SDS011;49858;48.956;9.076;2023-08-08T03:09:38;5.00;;;1.65;;
63714;SDS011;49858;48.956;9.076;2023-08-08T03:12:11;2.90;;;2.10;;
63714;SDS011;49858;48.956;9.076;2023-08-08T03:14:39;3.45;;;1.83;;
63714;SDS011;49858;48.956;9.076;2023-08-08T03:17:06;10.50;;;2.13;;
63714;SDS011;49858;48.956;9.076;2023-08-08T03:19:34;4.45;;;2.83;;
63714;SDS011;49858;48.956;9.076;2023-08-08T03:22:03;3.90;;;1.80;;
63714;SDS011;49858;48.956;9.076;2023-08-08T03:24:34;3.10;;;2.00;;
63714;SDS011;49858;48.956;9.076;2023-08-08T03:27:04;2.80;;;2.00;;
63714;SDS011;49858;48.956;9.076;2023-08-08T03:29:33;4.38;;;1.80;;
63714;SDS011;49858;48.956;9.076;2023-08-08T03:32:01;2.85;;;2.03;;
63714;SDS011;49858;48.956;9.076;2023-08-08T03:34:31;3.47;;;1.92;;
63714;SDS011;49858;48.956;9.076;2023-08-08T03:37:01;4.68;;;2.15;;
63714;SDS011;49858;48.956;9.076;2023-08-08T03:39:29;4.18;;;1.88;;
63714;SDS011;49858;48.956;9.076;2023-08-08T03:41:57;6.55;;;2.25;;
63714;SDS011;49858;48.956;9.076;2023-08-08T03:44:26;3.50;;;1.70;;
63714;SDS011;49858;48.956;9.076;2023-08-08T03:46:55;5.72;;;1.67;;
63714;SDS011;49858;48.956;9.076;2023-08-08T03:49:35;4.03;;;1.83;;
63714;SDS011;49858;48.956;9.076;2023-08-08T03:52:03;3.03;;;1.80;;
63714;SDS011;49858;48.956;9.076;2023-08-08T03:54:32;2.40;;;1.48;;
63714;SDS011;49858;48.956;9.076;2023-08-08T03:57:00;2.75;;;1.45;;
63714;SDS011;49858;48.956;9.076;2023-08-08T03:59:30;1.70;;;1.25;;
63714;SDS011;49858;48.956;9.076;2023-08-08T04:01:58;3.17;;;1.88;;
63714;SDS011;49858;48.956;9.076;2023-08-08T04:04:26;2.58;;;1.75;;
63714;SDS011;49858;48.956;9.076;2023-08-08T04:06:54;1.80;;;1.40;;
63714;SDS011;49858;48.956;9.076;2023-08-08T04:09:22;4.40;;;2.13;;
63714;SDS011;49858;48.956;9.076;2023-08-08T04:11:50;5.18;;;2.20;;
63714;SDS011;49858;48.956;9.076;2023-08-08T04:14:18;3.45;;;1.92;;
63714;SDS011;49858;48.956;9.076;2023-08-08T04:16:47;3.47;;;2.05;;
63714;SDS011;49858;48.956;9.076;2023-08-08T04:19:18;5.10;;;2.30;;
63714;SDS011;49858;48.956;9.076;2023-08-08T04:21:46;2.88;;;1.90;;
63714;SDS011;49858;48.956;9.076;2023-08-08T04:24:14;3.03;;;1.88;;
63714;SDS011;49858;48.956;9.076;2023-08-08T04:26:42;4.82;;;1.70;;
63714;SDS011;49858;48.956;9.076;2023-08-08T04:29:10;2.72;;;1.80;;
63714;SDS011;49858;48.956;9.076;2023-08-08T04:31:38;2.17;;;1.40;;
63714;SDS011;49858;48.956;9.076;2023-08-08T04:34:07;2.97;;;2.00;;
63714;SDS011;49858;48.956;9.076;2023-08-08T04:36:35;2.03;;;1.55;;
63714;SDS011;49858;48.956;9.076;2023-08-08T04:39:03;4.45;;;1.83;;
63714;SDS011;49858;48.956;9.076;2023-08-08T04:41:31;4.95;;;1.90;;
63714;SDS011;49858;48.956;9.076;2023-08-08T04:43:59;2.33;;;1.70;;
63714;SDS011;49858;48.956;9.076;2023-08-08T04:46:27;2.78;;;1.80;;
63714;SDS011;49858;48.956;9.076;2023-08-08T04:49:00;3.47;;;2.23;;
63714;SDS011;49858;48.956;9.076;2023-08-08T04:51:30;2.80;;;1.80;;
63714;SDS011;49858;48.956;9.076;2023-08-08T04:53:57;4.32;;;1.70;;
63714;SDS011;49858;48.956;9.076;2023-08-08T04:56:25;2.58;;;1.85;;
63714;SDS011;49858;48.956;9.076;2023-08-08T04:58:56;1.60;;;1.08;;
63714;SDS011;49858;48.956;9.076;2023-08-08T05:01:24;3.10;;;2.05;;
63714;SDS011;49858;48.956;9.076;2023-08-08T05:03:53;4.97;;;1.52;;
63714;SDS011;49858;48.956;9.076;2023-08-08T05:06:22;4.97;;;1.50;;
63714;SDS011;49858;48.956;9.076;2023-08-08T05:08:51;2.22;;;1.40;;
63714;SDS011;49858;48.956;9.076;2023-08-08T05:11:19;2.75;;;1.70;;
63714;SDS011;49858;48.956;9.076;2023-08-08T05:13:47;2.30;;;1.77;;
63714;SDS011;49858;48.956;9.076;2023-08-08T05:16:21;2.90;;;1.92;;
63714;SDS011;49858;48.956;9.076;2023-08-08T05:18:49;2.92;;;1.58;;
63714;SDS011;49858;48.956;9.076;2023-08-08T05:21:21;3.20;;;2.00;;
63714;SDS011;49858;48.956;9.076;2023-08-08T05:23:50;4.38;;;2.08;;
63714;SDS011;49858;48.956;9.076;2023-08-08T05:26:18;3.97;;;1.98;;
63714;SDS011;49858;48.956;9.076;2023-08-08T05:28:46;2.83;;;2.00;;
63714;SDS011;49858;48.956;9.076;2023-08-08T05:31:14;2.08;;;1.70;;
63714;SDS011;49858;48.956;9.076;2023-08-08T05:33:42;2.65;;;1.65;;
63714;SDS011;49858;48.956;9.076;2023-08-08T05:36:12;2.67;;;1.48;;
63714;SDS011;49858;48.956;9.076;2023-08-08T05:38:40;2.05;;;1.45;;
63714;SDS011;49858;48.956;9.076;2023-08-08T05:41:09;5.72;;;3.38;;
63714;SDS011;49858;48.956;9.076;2023-08-08T05:43:37;4.55;;;2.78;;
63714;SDS011;49858;48.956;9.076;2023-08-08T05:46:05;2.92;;;1.85;;
63714;SDS011;49858;48.956;9.076;2023-08-08T05:48:33;2.58;;;1.48;;
63714;SDS011;49858;48.956;9.076;2023-08-08T05:51:01;4.70;;;1.77;;
63714;SDS011;49858;48.956;9.076;2023-08-08T05:53:31;2.53;;;1.40;;
63714;SDS011;49858;48.956;9.076;2023-08-08T05:55:59;2.10;;;1.50;;
63714;SDS011;49858;48.956;9.076;2023-08-08T05:58:28;2.88;;;1.55;;
63714;SDS011;49858;48.956;9.076;2023-08-08T06:00:56;5.85;;;1.50;;
63714;SDS011;49858;48.956;9.076;2023-08-08T06:03:24;5.63;;;1.20;;
63714;SDS011;49858;48.956;9.076;2023-08-08T06:05:52;2.33;;;1.05;;
63714;SDS011;49858;48.956;9.076;2023-08-08T06:08:20;1.67;;;1.25;;
63714;SDS011;49858;48.956;9.076;2023-08-08T06:10:47;2.58;;;1.25;;
63714;SDS011;49858;48.956;9.076;2023-08-08T06:13:15;1.85;;;1.30;;
63714;SDS011;49858;48.956;9.076;2023-08-08T06:15:45;2.00;;;1.20;;
63714;SDS011;49858;48.956;9.076;2023-08-08T06:18:13;5.72;;;1.25;;
63714;SDS011;49858;48.956;9.076;2023-08-08T06:20:41;4.07;;;1.10;;
63714;SDS011;49858;48.956;9.076;2023-08-08T06:23:10;2.15;;;1.08;;
63714;SDS011;49858;48.956;9.076;2023-08-08T06:25:38;3.20;;;1.15;;
63714;SDS011;49858;48.956;9.076;2023-08-08T06:28:06;1.52;;;1.05;;
63714;SDS011;49858;48.956;9.076;2023-08-08T06:30:34;2.15;;;1.40;;
63714;SDS011;49858;48.956;9.076;2023-08-08T06:33:03;1.73;;;1.10;;
63714;SDS011;49858;48.956;9.076;2023-08-08T06:35:31;1.10;;;0.80;;
63714;SDS011;49858;48.956;9.076;2023-08-08T06:37:59;2.20;;;1.10;;
63714;SDS011;49858;48.956;9.076;2023-08-08T06:40:27;1.63;;;1.15;;
63714;SDS011;49858;48.956;9.076;2023-08-08T06:42:57;1.13;;;1.02;;
63714;SDS011;49858;48.956;9.076;2023-08-08T06:45:25;1.40;;;1.02;;
63714;SDS011;49858;48.956;9.076;2023-08-08T06:47:53;4.00;;;1.15;;
63714;SDS011;49858;48.956;9.076;2023-08-08T06:50:22;1.70;;;1.13;;
63714;SDS011;49858;48.956;9.076;2023-08-08T06:52:51;1.70;;;1.20;;
63714;SDS011;49858;48.956;9.076;2023-08-08T06:55:19;1.85;;;0.85;;
63714;SDS011;49858;48.956;9.076;2023-08-08T06:57:47;1.65;;;0.65;;
63714;SDS011;49858;48.956;9.076;2023-08-08T07:00:15;2.83;;;1.10;;
63714;SDS011;49858;48.956;9.076;2023-08-08T07:02:45;1.25;;;0.75;;
63714;SDS011;49858;48.956;9.076;2023-08-08T07:05:13;1.25;;;1.00;;
63714;SDS011;49858;48.956;9.076;2023-08-08T07:07:42;1.38;;;0.98;;
63714;SDS011;49858;48.956;9.076;2023-08-08T07:10:11;4.68;;;0.95;;
63714;SDS011;49858;48.956;9.076;2023-08-08T07:12:39;0.93;;;0.77;;
63714;SDS011;49858;48.956;9.076;2023-08-08T07:15:07;4.63;;;1.00;;
63714;SDS011;49858;48.956;9.076;2023-08-08T07:17:36;0.68;;;0.63;;
63714;SDS011;49858;48.956;9.076;2023-08-08T07:20:04;1.02;;;0.80;;
63714;SDS011;49858;48.956;9.076;2023-08-08T07:22:34;1.85;;;0.98;;
63714;SDS011;49858;48.956;9.076;2023-08-08T07:25:07;1.48;;;1.08;;
63714;SDS011;49858;48.956;9.076;2023-08-08T07:27:38;1.48;;;0.85;;
63714;SDS011;49858;48.956;9.076;2023-08-08T07:30:06;0.20;;;0.20;;
63714;SDS011;49858;48.956;9.076;2023-08-08T07:32:35;0.63;;;0.50;;
63714;SDS011;49858;48.956;9.076;2023-08-08T07:35:06;1.23;;;0.80;;
63714;SDS011;49858;48.956;9.076;2023-08-08T07:37:35;3.60;;;1.23;;
63714;SDS011;49858;48.956;9.076;2023-08-08T07:40:03;1.23;;;0.82;;
63714;SDS011;49858;48.956;9.076;2023-08-08T07:42:46;1.10;;;0.63;;
63714;SDS011;49858;48.956;9.076;2023-08-08T07:45:14;2.53;;;0.90;;
63714;SDS011;49858;48.956;9.076;2023-08-08T07:47:43;2.70;;;0.93;;
63714;SDS011;49858;48.956;9.076;2023-08-08T07:50:11;1.23;;;0.77;;
63714;SDS011;49858;48.956;9.076;2023-08-08T07:52:40;0.90;;;0.70;;
63714;SDS011;49858;48.956;9.076;2023-08-08T07:55:08;0.52;;;0.50;;
63714;SDS011;49858;48.956;9.076;2023-08-08T07:57:37;2.00;;;0.95;;
63714;SDS011;49858;48.956;9.076;2023-08-08T08:00:06;0.93;;;0.73;;
63714;SDS011;49858;48.956;9.076;2023-08-08T08:02:39;1.15;;;0.75;;
63714;SDS011;49858;48.956;9.076;2023-08-08T08:05:07;1.40;;;0.82;;
63714;SDS011;49858;48.956;9.076;2023-08-08T08:07:36;0.60;;;0.60;;
63714;SDS011;49858;48.956;9.076;2023-08-08T08:10:05;1.20;;;0.70;;
63714;SDS011;49858;48.956;9.076;2023-08-08T08:12:35;1.20;;;0.70;;
63714;SDS011;49858;48.956;9.076;2023-08-08T08:15:05;6.40;;;0.80;;
63714;SDS011;49858;48.956;9.076;2023-08-08T08:17:34;1.40;;;0.95;;
63714;SDS011;49858;48.956;9.076;2023-08-08T08:20:03;1.73;;;0.73;;
63714;SDS011;49858;48.956;9.076;2023-08-08T08:22:34;2.17;;;1.08;;
63714;SDS011;49858;48.956;9.076;2023-08-08T08:25:02;0.90;;;0.65;;
63714;SDS011;49858;48.956;9.076;2023-08-08T08:27:34;1.20;;;0.60;;
63714;SDS011;49858;48.956;9.076;2023-08-08T08:30:04;0.95;;;0.65;;
63714;SDS011;49858;48.956;9.076;2023-08-08T08:32:33;0.57;;;0.50;;
63714;SDS011;49858;48.956;9.076;2023-08-08T08:35:01;1.02;;;0.90;;
63714;SDS011;49858;48.956;9.076;2023-08-08T08:37:30;1.45;;;0.55;;
63714;SDS011;49858;48.956;9.076;2023-08-08T08:39:58;0.30;;;0.30;;
63714;SDS011;49858;48.956;9.076;2023-08-08T08:42:26;0.68;;;0.50;;
63714;SDS011;49858;48.956;9.076;2023-08-08T08:44:55;3.20;;;0.85;;
63714;SDS011;49858;48.956;9.076;2023-08-08T08:47:30;2.15;;;0.90;;
63714;SDS011;49858;48.956;9.076;2023-08-08T08:49:59;0.60;;;0.50;;
63714;SDS011;49858;48.956;9.076;2023-08-08T08:52:28;1.10;;;0.90;;
63714;SDS011;49858;48.956;9.076;2023-08-08T08:54:59;2.67;;;0.98;;
63714;SDS011;49858;48.956;9.076;2023-08-08T08:57:28;3.10;;;1.10;;
63714;SDS011;49858;48.956;9.076;2023-08-08T08:59:56;1.70;;;0.80;;
63714;SDS011;49858;48.956;9.076;2023-08-08T09:02:24;3.38;;;1.17;;
63714;SDS011;49858;48.956;9.076;2023-08-08T09:04:53;0.65;;;0.65;;
63714;SDS011;49858;48.956;9.076;2023-08-08T09:07:22;3.35;;;0.77;;
63714;SDS011;49858;48.956;9.076;2023-08-08T09:09:53;1.30;;;0.80;;
63714;SDS011;49858;48.956;9.076;2023-08-08T09:12:21;1.67;;;0.68;;
63714;SDS011;49858;48.956;9.076;2023-08-08T09:14:54;1.67;;;0.80;;
63714;SDS011;49858;48.956;9.076;2023-08-08T09:17:24;2.03;;;1.00;;
63714;SDS011;49858;48.956;9.076;2023-08-08T09:20:05;3.00;;;1.25;;
63714;SDS011;49858;48.956;9.076;2023-08-08T09:22:35;2.90;;;1.10;;
63714;SDS011;49858;48.956;9.076;2023-08-08T09:25:04;2.05;;;0.82;;
63714;SDS011;49858;48.956;9.076;2023-08-08T09:27:33;1.10;;;0.80;;
63714;SDS011;49858;48.956;9.076;2023-08-08T09:30:01;2.03;;;1.00;;
63714;SDS011;49858;48.956;9.076;2023-08-08T09:32:30;1.77;;;0.90;;
63714;SDS011;49858;48.956;9.076;2023-08-08T09:34:59;0.98;;;0.70;;
63714;SDS011;49858;48.956;9.076;2023-08-08T09:37:29;1.52;;;0.90;;
63714;SDS011;49858;48.956;9.076;2023-08-08T09:39:57;4.47;;;0.93;;
63714;SDS011;49858;48.956;9.076;2023-08-08T09:42:26;1.42;;;0.73;;
63714;SDS011;49858;48.956;9.076;2023-08-08T09:44:56;1.23;;;0.80;;
63714;SDS011;49858;48.956;9.076;2023-08-08T09:47:25;1.30;;;1.00;;
63714;SDS011;49858;48.956;9.076;2023-08-08T09:49:58;2.50;;;1.00;;
63714;SDS011;49858;48.956;9.076;2023-08-08T09:52:28;1.15;;;0.70;;
63714;SDS011;49858;48.956;9.076;2023-08-08T09:54:57;1.77;;;0.90;;
63714;SDS011;49858;48.956;9.076;2023-08-08T09:57:26;1.35;;;0.88;;
63714;SDS011;49858;48.956;9.076;2023-08-08T09:59:54;2.70;;;1.10;;
63714;SDS011;49858;48.956;9.076;2023-08-08T10:02:23;3.15;;;0.90;;
63714;SDS011;49858;48.956;9.076;2023-08-08T10:04:54;0.65;;;0.52;;
63714;SDS011;49858;48.956;9.076;2023-08-08T10:07:25;1.90;;;1.13;;
63714;SDS011;49858;48.956;9.076;2023-08-08T10:09:54;3.53;;;1.25;;
63714;SDS011;49858;48.956;9.076;2023-08-08T10:12:22;1.33;;;1.00;;
63714;SDS011;49858;48.956;9.076;2023-08-08T10:14:51;0.90;;;0.60;;
63714;SDS011;49858;48.956;9.076;2023-08-08T10:17:19;2.05;;;0.90;;
63714;SDS011;49858;48.956;9.076;2023-08-08T10:19:51;1.50;;;1.02;;
63714;SDS011;49858;48.956;9.076;2023-08-08T10:22:20;1.48;;;0.75;;
63714;SDS011;49858;48.956;9.076;2023-08-08T10:24:51;2.38;;;0.77;;
63714;SDS011;49858;48.956;9.076;2023-08-08T10:27:28;1.27;;;0.60;;
63714;SDS011;49858;48.956;9.076;2023-08-08T10:30:05;2.10;;;0.80;;
63714;SDS011;49858;48.956;9.076;2023-08-08T10:32:39;2.88;;;0.60;;
63714;SDS011;49858;48.956;9.076;2023-08-08T10:35:08;2.00;;;1.00;;
63714;SDS011;49858;48.956;9.076;2023-08-08T10:37:38;2.17;;;0.50;;
63714;SDS011;49858;48.956;9.076;2023-08-08T10:40:06;1.48;;;1.00;;
63714;SDS011;49858;48.956;9.076;2023-08-08T10:42:42;1.25;;;0.73;;
63714;SDS011;49858;48.956;9.076;2023-08-08T10:45:12;1.10;;;0.77;;
63714;SDS011;49858;48.956;9.076;2023-08-08T10:47:42;2.20;;;1.00;;
63714;SDS011;49858;48.956;9.076;2023-08-08T10:50:13;1.92;;;1.08;;
63714;SDS011;49858;48.956;9.076;2023-08-08T10:52:52;1.17;;;0.70;;
63714;SDS011;49858;48.956;9.076;2023-08-08T10:55:21;0.32;;;0.32;;
63714;SDS011;49858;48.956;9.076;2023-08-08T10:57:56;1.08;;;0.57;;
63714;SDS011;49858;48.956;9.076;2023-08-08T11:00:26;1.77;;;1.27;;
63714;SDS011;49858;48.956;9.076;2023-08-08T11:02:57;1.63;;;0.70;;
63714;SDS011;49858;48.956;9.076;2023-08-08T11:05:29;1.83;;;0.93;;
63714;SDS011;49858;48.956;9.076;2023-08-08T11:07:58;1.75;;;0.73;;
63714;SDS011;49858;48.956;9.076;2023-08-08T11:10:26;1.52;;;0.85;;
63714;SDS011;49858;48.956;9.076;2023-08-08T11:12:59;1.52;;;0.90;;
63714;SDS011;49858;48.956;9.076;2023-08-08T11:15:29;2.40;;;1.58;;
63714;SDS011;49858;48.956;9.076;2023-08-08T11:17:59;3.03;;;1.30;;
63714;SDS011;49858;48.956;9.076;2023-08-08T11:20:29;1.10;;;1.00;;
63714;SDS011;49858;48.956;9.076;2023-08-08T11:22:58;1.10;;;0.90;;
63714;SDS011;49858;48.956;9.076;2023-08-08T11:25:30;1.20;;;0.73;;
63714;SDS011;49858;48.956;9.076;2023-08-08T11:27:59;2.40;;;0.98;;
63714;SDS011;49858;48.956;9.076;2023-08-08T11:30:28;1.70;;;1.20;;
63714;SDS011;49858;48.956;9.076;2023-08-08T11:33:02;1.58;;;0.73;;
63714;SDS011;49858;48.956;9.076;2023-08-08T11:35:33;1.02;;;0.75;;
63714;SDS011;49858;48.956;9.076;2023-08-08T11:38:02;1.75;;;0.80;;
63714;SDS011;49858;48.956;9.076;2023-08-08T11:40:31;2.33;;;0.90;;
63714;SDS011;49858;48.956;9.076;2023-08-08T11:43:01;3.08;;;1.30;;
63714;SDS011;49858;48.956;9.076;2023-08-08T11:45:31;0.80;;;0.60;;
63714;SDS011;49858;48.956;9.076;2023-08-08T11:47:59;4.68;;;1.33;;
63714;SDS011;49858;48.956;9.076;2023-08-08T11:50:27;0.85;;;0.63;;
63714;SDS011;49858;48.956;9.076;2023-08-08T11:52:58;1.40;;;0.73;;
63714;SDS011;49858;48.956;9.076;2023-08-08T11:55:27;2.13;;;1.05;;
63714;SDS011;49858;48.956;9.076;2023-08-08T11:57:55;1.45;;;0.80;;
63714;SDS011;49858;48.956;9.076;2023-08-08T12:00:29;2.10;;;1.10;;
63714;SDS011;49858;48.956;9.076;2023-08-08T12:02:58;2.72;;;0.80;;
63714;SDS011;49858;48.956;9.076;2023-08-08T12:05:31;2.60;;;0.87;;
63714;SDS011;49858;48.956;9.076;2023-08-08T12:08:05;1.15;;;0.70;;
63714;SDS011;49858;48.956;9.076;2023-08-08T12:10:33;1.77;;;0.88;;
63714;SDS011;49858;48.956;9.076;2023-08-08T12:13:01;2.53;;;1.08;;
63714;SDS011;49858;48.956;9.076;2023-08-08T12:15:31;1.83;;;1.30;;
63714;SDS011;49858;48.956;9.076;2023-08-08T12:18:01;0.98;;;0.80;;
63714;SDS011;49858;48.956;9.076;2023-08-08T12:20:31;1.77;;;0.70;;
63714;SDS011;49858;48.956;9.076;2023-08-08T12:23:01;1.85;;;0.82;;
63714;SDS011;49858;48.956;9.076;2023-08-08T12:25:29;2.60;;;1.00;;
63714;SDS011;49858;48.956;9.076;2023-08-08T12:27:57;1.20;;;0.68;;
63714;SDS011;49858;48.956;9.076;2023-08-08T12:30:25;1.42;;;0.80;;
63714;SDS011;49858;48.956;9.076;2023-08-08T12:32:54;0.82;;;0.50;;
63714;SDS011;49858;48.956;9.076;2023-08-08T12:35:22;1.48;;;0.90;;
63714;SDS011;49858;48.956;9.076;2023-08-08T12:37:53;1.15;;;0.50;;
63714;SDS011;49858;48.956;9.076;2023-08-08T12:40:21;0.38;;;0.28;;
63714;SDS011;49858;48.956;9.076;2023-08-08T12:42:49;0.95;;;0.55;;
63714;SDS011;49858;48.956;9.076;2023-08-08T12:45:17;2.67;;;0.68;;
63714;SDS011;49858;48.956;9.076;2023-08-08T12:47:45;3.10;;;0.80;;
63714;SDS011;49858;48.956;9.076;2023-08-08T12:50:14;0.75;;;0.60;;
63714;SDS011;49858;48.956;9.076;2023-08-08T12:52:44;1.88;;;0.93;;
63714;SDS011;49858;48.956;9.076;2023-08-08T12:55:11;1.40;;;0.60;;
63714;SDS011;49858;48.956;9.076;2023-08-08T12:57:41;1.50;;;0.70;;
63714;SDS011;49858;48.956;9.076;2023-08-08T13:00:09;1.27;;;0.70;;
63714;SDS011;49858;48.956;9.076;2023-08-08T13:02:41;1.65;;;1.00;;
63714;SDS011;49858;48.956;9.076;2023-08-08T13:05:11;2.05;;;0.70;;
63714;SDS011;49858;48.956;9.076;2023-08-08T13:07:40;1.85;;;0.80;;
63714;SDS011;49858;48.956;9.076;2023-08-08T13:10:08;0.57;;;0.32;;
63714;SDS011;49858;48.956;9.076;2023-08-08T13:12:36;2.00;;;0.80;;
63714;SDS011;49858;48.956;9.076;2023-08-08T13:15:04;1.58;;;0.68;;
63714;SDS011;49858;48.956;9.076;2023-08-08T13:17:34;1.30;;;0.70;;
63714;SDS011;49858;48.956;9.076;2023-08-08T13:20:02;0.88;;;0.60;;
63714;SDS011;49858;48.956;9.076;2023-08-08T13:22:32;1.95;;;0.70;;
63714;SDS011;49858;48.956;9.076;2023-08-08T13:25:05;1.73;;;1.00;;
63714;SDS011;49858;48.956;9.076;2023-08-08T13:27:35;4.72;;;0.90;;
63714;SDS011;49858;48.956;9.076;2023-08-08T13:30:03;0.55;;;0.40;;
63714;SDS011;49858;48.956;9.076;2023-08-08T13:32:33;1.60;;;0.70;;
63714;SDS011;49858;48.956;9.076;2023-08-08T13:35:02;3.42;;;1.10;;
63714;SDS011;49858;48.956;9.076;2023-08-08T13:37:31;1.10;;;0.90;;
63714;SDS011;49858;48.956;9.076;2023-08-08T13:39:59;3.17;;;1.05;;
63714;SDS011;49858;48.956;9.076;2023-08-08T13:42:28;3.40;;;0.98;;
63714;SDS011;49858;48.956;9.076;2023-08-08T13:44:56;1.75;;;0.75;;
63714;SDS011;49858;48.956;9.076;2023-08-08T13:47:24;2.00;;;0.85;;
63714;SDS011;49858;48.956;9.076;2023-08-08T13:49:51;2.20;;;0.90;;
63714;SDS011;49858;48.956;9.076;2023-08-08T13:52:19;1.10;;;0.70;;
63714;SDS011;49858;48.956;9.076;2023-08-08T13:54:47;10.30;;;1.20;;
63714;SDS011;49858;48.956;9.076;2023-08-08T13:57:17;2.53;;;0.85;;
63714;SDS011;49858;48.956;9.076;2023-08-08T13:59:47;2.35;;;0.60;;
63714;SDS011;49858;48.956;9.076;2023-08-08T14:02:15;2.30;;;1.20;;
63714;SDS011;49858;48.956;9.076;2023-08-08T14:04:44;2.28;;;0.90;;
63714;SDS011;49858;48.956;9.076;2023-08-08T14:07:12;3.05;;;1.80;;
63714;SDS011;49858;48.956;9.076;2023-08-08T14:09:40;2.33;;;0.93;;
63714;SDS011;49858;48.956;9.076;2023-08-08T14:12:08;1.42;;;0.80;;
63714;SDS011;49858;48.956;9.076;2023-08-08T14:14:36;1.20;;;0.90;;
63714;SDS011;49858;48.956;9.076;2023-08-08T14:17:09;2.35;;;0.93;;
63714;SDS011;49858;48.956;9.076;2023-08-08T14:19:37;1.30;;;0.70;;
63714;SDS011;49858;48.956;9.076;2023-08-08T14:22:04;1.17;;;0.70;;
63714;SDS011;49858;48.956;9.076;2023-08-08T14:24:34;0.90;;;0.70;;
63714;SDS011;49858;48.956;9.076;2023-08-08T14:27:02;2.70;;;0.80;;
63714;SDS011;49858;48.956;9.076;2023-08-08T14:29:30;1.20;;;0.80;;
63714;SDS011;49858;48.956;9.076;2023-08-08T14:31:58;2.08;;;1.10;;
63714;SDS011;49858;48.956;9.076;2023-08-08T14:34:29;1.77;;;1.08;;
63714;SDS011;49858;48.956;9.076;2023-08-08T14:36:58;1.15;;;0.82;;
63714;SDS011;49858;48.956;9.076;2023-08-08T14:39:27;1.35;;;0.90;;
63714;SDS011;49858;48.956;9.076;2023-08-08T14:41:55;1.92;;;1.17;;
63714;SDS011;49858;48.956;9.076;2023-08-08T14:44:24;1.48;;;1.08;;
63714;SDS011;49858;48.956;9.076;2023-08-08T14:46:53;3.75;;;1.20;;
63714;SDS011;49858;48.956;9.076;2023-08-08T14:49:21;2.78;;;1.05;;
63714;SDS011;49858;48.956;9.076;2023-08-08T14:51:50;1.20;;;0.70;;
63714;SDS011;49858;48.956;9.076;2023-08-08T14:54:18;1.48;;;1.05;;
63714;SDS011;49858;48.956;9.076;2023-08-08T14:56:46;4.95;;;1.10;;
63714;SDS011;49858;48.956;9.076;2023-08-08T14:59:14;0.80;;;0.60;;